sensor_id;sensor_type;location;lat;lon;timestamp;temperature;humidity
24436;DHT22;12616;52.470;13.436;2022-12-29T00:01:26;7.50;1.00
24436;DHT22;12616;52.470;13.436;2022-12-29T00:03:53;7.60;1.00
24436;DHT22;12616;52.470;13.436;2022-12-29T00:06:21;7.90;1.00
24436;DHT22;12616;52.470;13.436;2022-12-29T00:08:48;7.70;1.00
24436;DHT22;12616;52.470;13.436;2022-12-29T00:11:16;7.70;1.00
24436;DHT22;12616;52.470;13.436;2022-12-29T00:13:43;7.70;1.00
24436;DHT22;12616;52.470;13.436;2022-12-29T00:16:29;7.90;1.00
24436;DHT22;12616;52.470;13.436;2022-12-29T00:18:56;8.00;99.90
24436;DHT22;12616;52.470;13.436;2022-12-29T00:21:25;7.70;99.90
24436;DHT22;12616;52.470;13.436;2022-12-29T00:24:12;7.80;99.90
24436;DHT22;12616;52.470;13.436;2022-12-29T00:27:09;7.70;1.00
24436;DHT22;12616;52.470;13.436;2022-12-29T00:29:54;7.90;99.90
24436;DHT22;12616;52.470;13.436;2022-12-29T00:32:38;7.90;99.90
24436;DHT22;12616;52.470;13.436;2022-12-29T00:35:39;8.00;99.90
24436;DHT22;12616;52.470;13.436;2022-12-29T00:38:12;8.00;99.90
24436;DHT22;12616;52.470;13.436;2022-12-29T00:40:57;7.90;99.90
24436;DHT22;12616;52.470;13.436;2022-12-29T00:43:41;8.80;99.90
24436;DHT22;12616;52.470;13.436;2022-12-29T00:46:25;8.00;99.90
24436;DHT22;12616;52.470;13.436;2022-12-29T00:48:52;8.10;99.90
24436;DHT22;12616;52.470;13.436;2022-12-29T00:51:37;8.00;99.90
24436;DHT22;12616;52.470;13.436;2022-12-29T00:54:05;8.00;99.90
24436;DHT22;12616;52.470;13.436;2022-12-29T00:56:32;8.00;99.90
24436;DHT22;12616;52.470;13.436;2022-12-29T00:59:00;8.00;99.90
24436;DHT22;12616;52.470;13.436;2022-12-29T01:01:27;8.00;99.90
24436;DHT22;12616;52.470;13.436;2022-12-29T01:03:54;8.00;99.90
24436;DHT22;12616;52.470;13.436;2022-12-29T01:06:21;8.00;99.90
24436;DHT22;12616;52.470;13.436;2022-12-29T01:08:47;8.00;99.90
24436;DHT22;12616;52.470;13.436;2022-12-29T01:11:36;8.30;99.90
24436;DHT22;12616;52.470;13.436;2022-12-29T01:14:02;8.00;99.90
24436;DHT22;12616;52.470;13.436;2022-12-29T01:16:29;7.90;99.90
24436;DHT22;12616;52.470;13.436;2022-12-29T01:21:23;8.00;99.90
24436;DHT22;12616;52.470;13.436;2022-12-29T01:23:50;8.00;99.90
24436;DHT22;12616;52.470;13.436;2022-12-29T01:26:17;8.00;99.90
24436;DHT22;12616;52.470;13.436;2022-12-29T01:28:46;8.00;99.90
24436;DHT22;12616;52.470;13.436;2022-12-29T01:31:14;8.00;99.90
24436;DHT22;12616;52.470;13.436;2022-12-29T01:33:41;8.00;99.90
24436;DHT22;12616;52.470;13.436;2022-12-29T01:36:11;7.90;99.90
24436;DHT22;12616;52.470;13.436;2022-12-29T01:38:38;8.00;99.90
24436;DHT22;12616;52.470;13.436;2022-12-29T01:41:07;8.00;99.90
24436;DHT22;12616;52.470;13.436;2022-12-29T01:43:40;8.10;99.90
24436;DHT22;12616;52.470;13.436;2022-12-29T01:46:16;8.10;99.90
24436;DHT22;12616;52.470;13.436;2022-12-29T01:48:46;8.00;99.90
24436;DHT22;12616;52.470;13.436;2022-12-29T01:51:14;7.70;99.90
24436;DHT22;12616;52.470;13.436;2022-12-29T01:53:43;8.10;99.90
24436;DHT22;12616;52.470;13.436;2022-12-29T01:56:14;8.00;99.90
24436;DHT22;12616;52.470;13.436;2022-12-29T01:58:44;7.90;99.90
24436;DHT22;12616;52.470;13.436;2022-12-29T02:01:16;7.90;99.90
24436;DHT22;12616;52.470;13.436;2022-12-29T02:03:45;7.80;99.90
24436;DHT22;12616;52.470;13.436;2022-12-29T02:06:16;7.80;99.90
24436;DHT22;12616;52.470;13.436;2022-12-29T02:08:46;7.70;99.90
24436;DHT22;12616;52.470;13.436;2022-12-29T02:11:14;7.80;99.90
24436;DHT22;12616;52.470;13.436;2022-12-29T02:13:42;7.70;99.90
24436;DHT22;12616;52.470;13.436;2022-12-29T02:16:18;8.00;1.00
24436;DHT22;12616;52.470;13.436;2022-12-29T02:18:53;7.80;99.90
24436;DHT22;12616;52.470;13.436;2022-12-29T02:21:45;7.70;99.90
24436;DHT22;12616;52.470;13.436;2022-12-29T02:24:37;7.90;99.90
24436;DHT22;12616;52.470;13.436;2022-12-29T02:30:12;7.90;99.90
24436;DHT22;12616;52.470;13.436;2022-12-29T02:32:50;7.90;99.90
24436;DHT22;12616;52.470;13.436;2022-12-29T02:35:25;7.90;99.90
24436;DHT22;12616;52.470;13.436;2022-12-29T02:38:03;7.60;99.90
24436;DHT22;12616;52.470;13.436;2022-12-29T02:40:38;7.90;99.90
24436;DHT22;12616;52.470;13.436;2022-12-29T02:43:14;7.90;99.90
24436;DHT22;12616;52.470;13.436;2022-12-29T02:45:49;8.00;99.90
24436;DHT22;12616;52.470;13.436;2022-12-29T02:48:22;8.00;99.90
24436;DHT22;12616;52.470;13.436;2022-12-29T02:50:54;8.10;99.90
24436;DHT22;12616;52.470;13.436;2022-12-29T02:53:25;8.10;99.90
24436;DHT22;12616;52.470;13.436;2022-12-29T02:56:07;8.10;99.90
24436;DHT22;12616;52.470;13.436;2022-12-29T02:58:33;8.20;83.00
24436;DHT22;12616;52.470;13.436;2022-12-29T03:01:22;8.20;1.00
24436;DHT22;12616;52.470;13.436;2022-12-29T03:04:12;8.30;1.00
24436;DHT22;12616;52.470;13.436;2022-12-29T03:06:48;8.30;80.60
24436;DHT22;12616;52.470;13.436;2022-12-29T03:09:24;8.40;1.00
24436;DHT22;12616;52.470;13.436;2022-12-29T03:11:58;8.50;1.00
24436;DHT22;12616;52.470;13.436;2022-12-29T03:14:41;8.50;1.00
24436;DHT22;12616;52.470;13.436;2022-12-29T03:17:33;8.60;1.00
24436;DHT22;12616;52.470;13.436;2022-12-29T03:20:07;8.60;1.00
24436;DHT22;12616;52.470;13.436;2022-12-29T03:22:38;8.60;1.00
24436;DHT22;12616;52.470;13.436;2022-12-29T03:25:09;8.60;1.00
24436;DHT22;12616;52.470;13.436;2022-12-29T03:27:40;8.70;1.00
24436;DHT22;12616;52.470;13.436;2022-12-29T03:30:09;8.60;1.00
24436;DHT22;12616;52.470;13.436;2022-12-29T03:32:42;8.70;1.00
24436;DHT22;12616;52.470;13.436;2022-12-29T03:35:14;8.60;1.00
24436;DHT22;12616;52.470;13.436;2022-12-29T03:37:44;8.70;1.00
24436;DHT22;12616;52.470;13.436;2022-12-29T03:40:12;8.70;1.00
24436;DHT22;12616;52.470;13.436;2022-12-29T03:42:40;8.70;1.00
24436;DHT22;12616;52.470;13.436;2022-12-29T03:45:08;8.70;1.00
24436;DHT22;12616;52.470;13.436;2022-12-29T03:50:03;8.80;1.00
24436;DHT22;12616;52.470;13.436;2022-12-29T03:52:31;8.80;1.00
24436;DHT22;12616;52.470;13.436;2022-12-29T03:54:58;8.80;1.00
24436;DHT22;12616;52.470;13.436;2022-12-29T03:57:28;8.80;1.00
24436;DHT22;12616;52.470;13.436;2022-12-29T03:59:55;8.80;1.00
24436;DHT22;12616;52.470;13.436;2022-12-29T04:02:21;8.90;1.00
24436;DHT22;12616;52.470;13.436;2022-12-29T04:04:49;8.90;1.00
24436;DHT22;12616;52.470;13.436;2022-12-29T04:07:16;9.00;1.00
24436;DHT22;12616;52.470;13.436;2022-12-29T04:09:44;8.90;1.00
24436;DHT22;12616;52.470;13.436;2022-12-29T04:12:11;8.90;1.00
24436;DHT22;12616;52.470;13.436;2022-12-29T04:14:38;8.90;1.00
24436;DHT22;12616;52.470;13.436;2022-12-29T04:17:06;9.10;1.00
24436;DHT22;12616;52.470;13.436;2022-12-29T04:19:32;8.80;1.00
24436;DHT22;12616;52.470;13.436;2022-12-29T04:21:59;8.90;1.00
24436;DHT22;12616;52.470;13.436;2022-12-29T04:24:25;9.00;1.00
24436;DHT22;12616;52.470;13.436;2022-12-29T04:26:53;9.00;1.00
24436;DHT22;12616;52.470;13.436;2022-12-29T04:29:20;9.00;1.00
24436;DHT22;12616;52.470;13.436;2022-12-29T04:31:47;8.90;1.00
24436;DHT22;12616;52.470;13.436;2022-12-29T04:34:14;8.90;1.00
24436;DHT22;12616;52.470;13.436;2022-12-29T04:36:40;9.00;1.00
24436;DHT22;12616;52.470;13.436;2022-12-29T04:39:07;8.80;1.00
24436;DHT22;12616;52.470;13.436;2022-12-29T04:41:34;9.00;1.00
24436;DHT22;12616;52.470;13.436;2022-12-29T04:44:03;8.70;1.00
24436;DHT22;12616;52.470;13.436;2022-12-29T04:46:29;9.00;1.00
24436;DHT22;12616;52.470;13.436;2022-12-29T04:48:56;9.00;1.00
24436;DHT22;12616;52.470;13.436;2022-12-29T04:51:23;9.00;1.00
24436;DHT22;12616;52.470;13.436;2022-12-29T04:53:50;9.00;1.00
24436;DHT22;12616;52.470;13.436;2022-12-29T04:56:17;9.00;1.00
24436;DHT22;12616;52.470;13.436;2022-12-29T04:58:43;9.00;1.00
24436;DHT22;12616;52.470;13.436;2022-12-29T05:01:12;8.80;1.00
24436;DHT22;12616;52.470;13.436;2022-12-29T05:03:38;9.00;1.00
24436;DHT22;12616;52.470;13.436;2022-12-29T05:06:06;9.10;1.00
24436;DHT22;12616;52.470;13.436;2022-12-29T05:08:33;9.10;1.00
24436;DHT22;12616;52.470;13.436;2022-12-29T05:11:00;9.10;1.00
24436;DHT22;12616;52.470;13.436;2022-12-29T05:13:27;9.10;1.00
24436;DHT22;12616;52.470;13.436;2022-12-29T05:15:54;9.20;1.00
24436;DHT22;12616;52.470;13.436;2022-12-29T05:18:22;9.20;1.00
24436;DHT22;12616;52.470;13.436;2022-12-29T05:20:49;9.20;1.00
24436;DHT22;12616;52.470;13.436;2022-12-29T05:23:16;9.20;1.00
24436;DHT22;12616;52.470;13.436;2022-12-29T05:25:43;9.30;1.00
24436;DHT22;12616;52.470;13.436;2022-12-29T05:28:11;9.20;1.00
24436;DHT22;12616;52.470;13.436;2022-12-29T05:30:38;9.30;1.00
24436;DHT22;12616;52.470;13.436;2022-12-29T05:33:04;9.30;1.00
24436;DHT22;12616;52.470;13.436;2022-12-29T05:35:33;9.40;1.00
24436;DHT22;12616;52.470;13.436;2022-12-29T05:38:00;9.40;1.00
24436;DHT22;12616;52.470;13.436;2022-12-29T05:40:27;9.40;1.00
24436;DHT22;12616;52.470;13.436;2022-12-29T05:42:54;9.40;1.00
24436;DHT22;12616;52.470;13.436;2022-12-29T05:45:21;9.40;1.00
24436;DHT22;12616;52.470;13.436;2022-12-29T05:47:47;9.40;1.00
24436;DHT22;12616;52.470;13.436;2022-12-29T05:50:14;9.40;1.00
24436;DHT22;12616;52.470;13.436;2022-12-29T05:52:42;9.50;1.00
24436;DHT22;12616;52.470;13.436;2022-12-29T05:55:10;9.50;1.00
24436;DHT22;12616;52.470;13.436;2022-12-29T05:57:37;9.60;1.00
24436;DHT22;12616;52.470;13.436;2022-12-29T06:00:05;9.70;1.00
24436;DHT22;12616;52.470;13.436;2022-12-29T06:02:32;9.70;1.00
24436;DHT22;12616;52.470;13.436;2022-12-29T06:04:59;9.60;1.00
24436;DHT22;12616;52.470;13.436;2022-12-29T06:07:26;9.80;99.90
24436;DHT22;12616;52.470;13.436;2022-12-29T06:09:54;9.80;1.00
24436;DHT22;12616;52.470;13.436;2022-12-29T06:12:21;9.80;99.90
24436;DHT22;12616;52.470;13.436;2022-12-29T06:14:48;9.80;1.00
24436;DHT22;12616;52.470;13.436;2022-12-29T06:17:14;10.20;1.00
24436;DHT22;12616;52.470;13.436;2022-12-29T06:19:41;9.80;1.00
24436;DHT22;12616;52.470;13.436;2022-12-29T06:22:09;10.10;1.00
24436;DHT22;12616;52.470;13.436;2022-12-29T06:24:37;9.80;1.00
24436;DHT22;12616;52.470;13.436;2022-12-29T06:27:05;10.10;1.00
24436;DHT22;12616;52.470;13.436;2022-12-29T06:29:32;9.80;99.90
24436;DHT22;12616;52.470;13.436;2022-12-29T06:32:00;9.80;99.90
24436;DHT22;12616;52.470;13.436;2022-12-29T06:34:27;9.80;99.90
24436;DHT22;12616;52.470;13.436;2022-12-29T06:36:54;9.80;1.00
24436;DHT22;12616;52.470;13.436;2022-12-29T06:39:20;9.80;1.00
24436;DHT22;12616;52.470;13.436;2022-12-29T06:41:47;9.70;1.00
24436;DHT22;12616;52.470;13.436;2022-12-29T06:44:15;9.70;1.00
24436;DHT22;12616;52.470;13.436;2022-12-29T06:46:42;9.80;1.00
24436;DHT22;12616;52.470;13.436;2022-12-29T06:49:09;9.80;1.00
24436;DHT22;12616;52.470;13.436;2022-12-29T06:51:36;9.80;1.00
24436;DHT22;12616;52.470;13.436;2022-12-29T06:54:03;9.80;1.00
24436;DHT22;12616;52.470;13.436;2022-12-29T06:56:30;9.80;1.00
24436;DHT22;12616;52.470;13.436;2022-12-29T06:58:57;9.80;1.00
24436;DHT22;12616;52.470;13.436;2022-12-29T07:01:27;9.80;1.00
24436;DHT22;12616;52.470;13.436;2022-12-29T07:03:54;9.90;1.00
24436;DHT22;12616;52.470;13.436;2022-12-29T07:06:20;9.90;1.00
24436;DHT22;12616;52.470;13.436;2022-12-29T07:08:47;9.80;1.00
24436;DHT22;12616;52.470;13.436;2022-12-29T07:11:14;9.80;1.00
24436;DHT22;12616;52.470;13.436;2022-12-29T07:13:41;9.70;1.00
24436;DHT22;12616;52.470;13.436;2022-12-29T07:16:09;9.80;1.00
24436;DHT22;12616;52.470;13.436;2022-12-29T07:18:37;9.70;1.00
24436;DHT22;12616;52.470;13.436;2022-12-29T07:21:04;9.80;1.00
24436;DHT22;12616;52.470;13.436;2022-12-29T07:23:33;9.80;1.00
24436;DHT22;12616;52.470;13.436;2022-12-29T07:26:00;10.00;1.00
24436;DHT22;12616;52.470;13.436;2022-12-29T07:28:28;9.80;1.00
24436;DHT22;12616;52.470;13.436;2022-12-29T07:30:55;9.90;1.00
24436;DHT22;12616;52.470;13.436;2022-12-29T07:33:22;9.90;1.00
24436;DHT22;12616;52.470;13.436;2022-12-29T07:35:50;9.90;1.00
24436;DHT22;12616;52.470;13.436;2022-12-29T07:38:17;10.00;1.00
24436;DHT22;12616;52.470;13.436;2022-12-29T07:40:44;9.80;1.00
24436;DHT22;12616;52.470;13.436;2022-12-29T07:43:11;10.00;1.00
24436;DHT22;12616;52.470;13.436;2022-12-29T07:45:38;10.10;1.00
24436;DHT22;12616;52.470;13.436;2022-12-29T07:48:05;10.00;1.00
24436;DHT22;12616;52.470;13.436;2022-12-29T07:50:33;10.00;1.00
24436;DHT22;12616;52.470;13.436;2022-12-29T07:53:01;10.00;1.00
24436;DHT22;12616;52.470;13.436;2022-12-29T07:55:28;10.00;1.00
24436;DHT22;12616;52.470;13.436;2022-12-29T07:57:55;10.00;1.00
24436;DHT22;12616;52.470;13.436;2022-12-29T08:00:23;10.10;1.00
24436;DHT22;12616;52.470;13.436;2022-12-29T08:02:49;10.10;1.00
24436;DHT22;12616;52.470;13.436;2022-12-29T08:05:16;10.10;1.00
24436;DHT22;12616;52.470;13.436;2022-12-29T08:07:44;10.10;1.00
24436;DHT22;12616;52.470;13.436;2022-12-29T08:10:14;10.10;1.00
24436;DHT22;12616;52.470;13.436;2022-12-29T08:12:41;10.10;1.00
24436;DHT22;12616;52.470;13.436;2022-12-29T08:15:10;10.10;1.00
24436;DHT22;12616;52.470;13.436;2022-12-29T08:17:38;10.20;99.90
24436;DHT22;12616;52.470;13.436;2022-12-29T08:20:05;10.20;99.90
24436;DHT22;12616;52.470;13.436;2022-12-29T08:22:32;10.20;99.90
24436;DHT22;12616;52.470;13.436;2022-12-29T08:24:59;10.30;99.90
24436;DHT22;12616;52.470;13.436;2022-12-29T08:27:27;10.30;1.00
24436;DHT22;12616;52.470;13.436;2022-12-29T08:29:54;10.20;99.90
24436;DHT22;12616;52.470;13.436;2022-12-29T08:32:21;10.30;1.00
24436;DHT22;12616;52.470;13.436;2022-12-29T08:34:48;10.30;1.00
24436;DHT22;12616;52.470;13.436;2022-12-29T08:37:15;10.00;99.90
24436;DHT22;12616;52.470;13.436;2022-12-29T08:39:41;10.20;81.60
24436;DHT22;12616;52.470;13.436;2022-12-29T08:42:08;9.70;99.90
24436;DHT22;12616;52.470;13.436;2022-12-29T08:44:36;10.30;99.90
24436;DHT22;12616;52.470;13.436;2022-12-29T08:47:03;10.60;99.90
24436;DHT22;12616;52.470;13.436;2022-12-29T08:49:30;10.30;1.00
24436;DHT22;12616;52.470;13.436;2022-12-29T08:51:58;10.30;1.00
24436;DHT22;12616;52.470;13.436;2022-12-29T08:54:25;10.20;1.00
24436;DHT22;12616;52.470;13.436;2022-12-29T08:56:52;10.40;99.90
24436;DHT22;12616;52.470;13.436;2022-12-29T08:59:19;10.20;98.70
24436;DHT22;12616;52.470;13.436;2022-12-29T09:01:47;10.20;87.50
24436;DHT22;12616;52.470;13.436;2022-12-29T09:04:14;10.20;72.90
24436;DHT22;12616;52.470;13.436;2022-12-29T09:06:41;10.30;99.90
24436;DHT22;12616;52.470;13.436;2022-12-29T09:09:08;10.30;15.90
24436;DHT22;12616;52.470;13.436;2022-12-29T09:11:35;10.40;1.00
24436;DHT22;12616;52.470;13.436;2022-12-29T09:14:02;10.40;1.00
24436;DHT22;12616;52.470;13.436;2022-12-29T09:16:29;10.30;1.00
24436;DHT22;12616;52.470;13.436;2022-12-29T09:18:57;10.30;1.00
24436;DHT22;12616;52.470;13.436;2022-12-29T09:21:24;10.30;1.00
24436;DHT22;12616;52.470;13.436;2022-12-29T09:23:51;10.30;1.00
24436;DHT22;12616;52.470;13.436;2022-12-29T09:26:18;10.40;1.00
24436;DHT22;12616;52.470;13.436;2022-12-29T09:28:45;10.40;1.00
24436;DHT22;12616;52.470;13.436;2022-12-29T09:31:13;10.40;1.00
24436;DHT22;12616;52.470;13.436;2022-12-29T09:33:40;10.90;1.00
24436;DHT22;12616;52.470;13.436;2022-12-29T09:36:09;10.50;1.00
24436;DHT22;12616;52.470;13.436;2022-12-29T09:38:36;10.70;1.00
24436;DHT22;12616;52.470;13.436;2022-12-29T09:41:08;10.70;99.90
24436;DHT22;12616;52.470;13.436;2022-12-29T09:44:06;10.60;1.00
24436;DHT22;12616;52.470;13.436;2022-12-29T09:46:40;10.60;1.00
24436;DHT22;12616;52.470;13.436;2022-12-29T09:49:19;10.70;99.90
24436;DHT22;12616;52.470;13.436;2022-12-29T09:51:53;10.70;99.90
24436;DHT22;12616;52.470;13.436;2022-12-29T09:54:28;10.80;99.90
24436;DHT22;12616;52.470;13.436;2022-12-29T09:56:57;10.80;99.90
24436;DHT22;12616;52.470;13.436;2022-12-29T09:59:36;10.80;99.90
24436;DHT22;12616;52.470;13.436;2022-12-29T10:02:16;10.90;99.90
24436;DHT22;12616;52.470;13.436;2022-12-29T10:04:47;11.10;1.00
24436;DHT22;12616;52.470;13.436;2022-12-29T10:07:24;11.20;1.00
24436;DHT22;12616;52.470;13.436;2022-12-29T10:09:58;11.20;1.00
24436;DHT22;12616;52.470;13.436;2022-12-29T10:12:33;11.20;1.00
24436;DHT22;12616;52.470;13.436;2022-12-29T10:15:14;11.20;1.00
24436;DHT22;12616;52.470;13.436;2022-12-29T10:17:51;11.60;1.00
24436;DHT22;12616;52.470;13.436;2022-12-29T10:20:28;11.30;99.90
24436;DHT22;12616;52.470;13.436;2022-12-29T10:23:08;11.20;1.00
24436;DHT22;12616;52.470;13.436;2022-12-29T10:25:41;11.30;1.00
24436;DHT22;12616;52.470;13.436;2022-12-29T10:28:16;11.30;1.00
24436;DHT22;12616;52.470;13.436;2022-12-29T10:30:46;11.40;99.90
24436;DHT22;12616;52.470;13.436;2022-12-29T10:33:18;11.60;99.90
24436;DHT22;12616;52.470;13.436;2022-12-29T10:35:47;11.60;1.00
24436;DHT22;12616;52.470;13.436;2022-12-29T10:38:22;11.60;89.30
24436;DHT22;12616;52.470;13.436;2022-12-29T10:40:54;11.60;99.90
24436;DHT22;12616;52.470;13.436;2022-12-29T10:43:27;11.60;99.90
24436;DHT22;12616;52.470;13.436;2022-12-29T10:45:59;11.70;99.90
24436;DHT22;12616;52.470;13.436;2022-12-29T10:48:31;11.50;1.00
24436;DHT22;12616;52.470;13.436;2022-12-29T10:51:00;11.70;1.00
24436;DHT22;12616;52.470;13.436;2022-12-29T10:53:35;12.20;1.00
24436;DHT22;12616;52.470;13.436;2022-12-29T10:56:15;11.90;1.00
24436;DHT22;12616;52.470;13.436;2022-12-29T10:58:46;11.90;1.00
24436;DHT22;12616;52.470;13.436;2022-12-29T11:01:15;12.10;99.90
24436;DHT22;12616;52.470;13.436;2022-12-29T11:03:56;12.10;99.90
24436;DHT22;12616;52.470;13.436;2022-12-29T11:06:27;12.10;99.90
24436;DHT22;12616;52.470;13.436;2022-12-29T11:09:02;12.10;99.90
24436;DHT22;12616;52.470;13.436;2022-12-29T11:11:36;12.10;99.90
24436;DHT22;12616;52.470;13.436;2022-12-29T11:14:11;12.10;99.90
24436;DHT22;12616;52.470;13.436;2022-12-29T11:16:39;12.10;99.90
24436;DHT22;12616;52.470;13.436;2022-12-29T11:19:19;12.10;99.90
24436;DHT22;12616;52.470;13.436;2022-12-29T11:21:46;12.10;99.90
24436;DHT22;12616;52.470;13.436;2022-12-29T11:24:21;12.10;1.00
24436;DHT22;12616;52.470;13.436;2022-12-29T11:26:49;12.10;1.00
24436;DHT22;12616;52.470;13.436;2022-12-29T11:29:24;12.00;99.90
24436;DHT22;12616;52.470;13.436;2022-12-29T11:31:52;12.00;99.90
24436;DHT22;12616;52.470;13.436;2022-12-29T11:34:22;11.90;99.90
24436;DHT22;12616;52.470;13.436;2022-12-29T11:36:53;11.90;1.00
24436;DHT22;12616;52.470;13.436;2022-12-29T11:39:28;11.80;20.40
24436;DHT22;12616;52.470;13.436;2022-12-29T11:41:56;11.70;99.90
24436;DHT22;12616;52.470;13.436;2022-12-29T11:44:24;11.70;1.00
24436;DHT22;12616;52.470;13.436;2022-12-29T11:46:51;11.60;99.90
24436;DHT22;12616;52.470;13.436;2022-12-29T11:49:20;11.50;99.90
24436;DHT22;12616;52.470;13.436;2022-12-29T11:51:50;11.40;99.90
24436;DHT22;12616;52.470;13.436;2022-12-29T11:54:21;11.80;1.00
24436;DHT22;12616;52.470;13.436;2022-12-29T11:56:50;11.40;1.00
24436;DHT22;12616;52.470;13.436;2022-12-29T11:59:25;11.30;1.00
24436;DHT22;12616;52.470;13.436;2022-12-29T12:02:10;11.30;99.90
24436;DHT22;12616;52.470;13.436;2022-12-29T12:04:41;11.20;1.00
24436;DHT22;12616;52.470;13.436;2022-12-29T12:07:14;11.00;99.90
24436;DHT22;12616;52.470;13.436;2022-12-29T12:09:45;11.00;99.90
24436;DHT22;12616;52.470;13.436;2022-12-29T12:12:23;10.80;1.00
24436;DHT22;12616;52.470;13.436;2022-12-29T12:14:54;10.50;1.00
24436;DHT22;12616;52.470;13.436;2022-12-29T12:17:29;10.30;1.00
24436;DHT22;12616;52.470;13.436;2022-12-29T12:20:14;10.30;1.00
24436;DHT22;12616;52.470;13.436;2022-12-29T12:22:46;10.20;1.00
24436;DHT22;12616;52.470;13.436;2022-12-29T12:25:18;10.20;1.00
24436;DHT22;12616;52.470;13.436;2022-12-29T12:27:51;10.20;15.70
24436;DHT22;12616;52.470;13.436;2022-12-29T12:30:21;10.10;1.00
24436;DHT22;12616;52.470;13.436;2022-12-29T12:32:52;10.10;1.00
24436;DHT22;12616;52.470;13.436;2022-12-29T12:35:24;10.10;1.00
24436;DHT22;12616;52.470;13.436;2022-12-29T12:38:11;10.10;1.00
24436;DHT22;12616;52.470;13.436;2022-12-29T12:41:05;10.00;1.00
24436;DHT22;12616;52.470;13.436;2022-12-29T12:43:48;9.90;1.00
24436;DHT22;12616;52.470;13.436;2022-12-29T12:46:44;10.20;99.90
24436;DHT22;12616;52.470;13.436;2022-12-29T12:52:25;9.80;49.50
24436;DHT22;12616;52.470;13.436;2022-12-29T12:55:06;9.80;88.90
24436;DHT22;12616;52.470;13.436;2022-12-29T12:57:47;10.20;99.90
24436;DHT22;12616;52.470;13.436;2022-12-29T13:00:19;9.70;99.90
24436;DHT22;12616;52.470;13.436;2022-12-29T13:03:01;9.70;99.90
24436;DHT22;12616;52.470;13.436;2022-12-29T13:05:41;9.70;99.90
24436;DHT22;12616;52.470;13.436;2022-12-29T13:08:26;9.70;99.90
24436;DHT22;12616;52.470;13.436;2022-12-29T13:11:04;9.60;99.90
24436;DHT22;12616;52.470;13.436;2022-12-29T13:13:55;9.60;99.90
24436;DHT22;12616;52.470;13.436;2022-12-29T13:16:31;9.60;99.90
24436;DHT22;12616;52.470;13.436;2022-12-29T13:19:04;9.60;99.90
24436;DHT22;12616;52.470;13.436;2022-12-29T13:21:45;9.60;99.90
24436;DHT22;12616;52.470;13.436;2022-12-29T13:24:22;9.50;99.90
24436;DHT22;12616;52.470;13.436;2022-12-29T13:26:56;10.20;99.90
24436;DHT22;12616;52.470;13.436;2022-12-29T13:29:31;9.70;99.90
24436;DHT22;12616;52.470;13.436;2022-12-29T13:32:13;9.70;99.90
24436;DHT22;12616;52.470;13.436;2022-12-29T13:34:48;9.70;99.90
24436;DHT22;12616;52.470;13.436;2022-12-29T13:37:20;9.70;99.90
24436;DHT22;12616;52.470;13.436;2022-12-29T13:39:52;9.70;99.90
24436;DHT22;12616;52.470;13.436;2022-12-29T13:42:22;9.70;99.90
24436;DHT22;12616;52.470;13.436;2022-12-29T13:44:54;9.70;99.90
24436;DHT22;12616;52.470;13.436;2022-12-29T13:47:28;10.00;99.90
24436;DHT22;12616;52.470;13.436;2022-12-29T13:49:58;9.70;99.90
24436;DHT22;12616;52.470;13.436;2022-12-29T13:52:32;9.80;99.90
24436;DHT22;12616;52.470;13.436;2022-12-29T13:55:16;9.80;99.90
24436;DHT22;12616;52.470;13.436;2022-12-29T13:57:49;9.60;99.90
24436;DHT22;12616;52.470;13.436;2022-12-29T14:00:20;9.80;99.90
24436;DHT22;12616;52.470;13.436;2022-12-29T14:03:04;9.80;99.90
24436;DHT22;12616;52.470;13.436;2022-12-29T14:05:37;9.80;99.90
24436;DHT22;12616;52.470;13.436;2022-12-29T14:08:05;9.80;99.90
24436;DHT22;12616;52.470;13.436;2022-12-29T14:10:47;9.80;99.90
24436;DHT22;12616;52.470;13.436;2022-12-29T14:13:17;9.80;99.90
24436;DHT22;12616;52.470;13.436;2022-12-29T14:15:50;9.70;99.90
24436;DHT22;12616;52.470;13.436;2022-12-29T14:18:21;9.80;99.90
24436;DHT22;12616;52.470;13.436;2022-12-29T14:20:54;9.70;99.90
24436;DHT22;12616;52.470;13.436;2022-12-29T14:23:35;9.80;99.90
24436;DHT22;12616;52.470;13.436;2022-12-29T14:26:15;9.70;99.90
24436;DHT22;12616;52.470;13.436;2022-12-29T14:28:44;9.70;99.90
24436;DHT22;12616;52.470;13.436;2022-12-29T14:31:34;9.70;99.90
24436;DHT22;12616;52.470;13.436;2022-12-29T14:34:28;9.70;99.90
24436;DHT22;12616;52.470;13.436;2022-12-29T14:36:56;9.70;99.90
24436;DHT22;12616;52.470;13.436;2022-12-29T14:39:36;9.70;99.90
24436;DHT22;12616;52.470;13.436;2022-12-29T14:42:06;9.60;99.90
24436;DHT22;12616;52.470;13.436;2022-12-29T14:44:33;9.70;99.90
24436;DHT22;12616;52.470;13.436;2022-12-29T14:47:05;9.70;99.90
24436;DHT22;12616;52.470;13.436;2022-12-29T14:49:41;9.70;99.90
24436;DHT22;12616;52.470;13.436;2022-12-29T14:52:15;9.70;99.90
24436;DHT22;12616;52.470;13.436;2022-12-29T14:54:47;9.80;99.90
24436;DHT22;12616;52.470;13.436;2022-12-29T14:57:32;9.60;99.90
24436;DHT22;12616;52.470;13.436;2022-12-29T15:00:07;9.60;99.90
24436;DHT22;12616;52.470;13.436;2022-12-29T15:02:39;9.70;99.90
24436;DHT22;12616;52.470;13.436;2022-12-29T15:05:27;9.60;99.90
24436;DHT22;12616;52.470;13.436;2022-12-29T15:07:56;9.60;99.90
24436;DHT22;12616;52.470;13.436;2022-12-29T15:10:26;9.60;99.90
24436;DHT22;12616;52.470;13.436;2022-12-29T15:12:54;9.60;99.90
24436;DHT22;12616;52.470;13.436;2022-12-29T15:15:26;9.50;99.90
24436;DHT22;12616;52.470;13.436;2022-12-29T15:17:54;9.50;99.90
24436;DHT22;12616;52.470;13.436;2022-12-29T15:20:25;9.50;99.90
24436;DHT22;12616;52.470;13.436;2022-12-29T15:22:55;9.70;99.90
24436;DHT22;12616;52.470;13.436;2022-12-29T15:25:23;9.70;99.90
24436;DHT22;12616;52.470;13.436;2022-12-29T15:27:51;9.90;99.90
24436;DHT22;12616;52.470;13.436;2022-12-29T15:30:20;9.80;99.90
24436;DHT22;12616;52.470;13.436;2022-12-29T15:32:50;9.70;99.90
24436;DHT22;12616;52.470;13.436;2022-12-29T15:35:32;9.60;99.90
24436;DHT22;12616;52.470;13.436;2022-12-29T15:38:01;9.60;99.90
24436;DHT22;12616;52.470;13.436;2022-12-29T15:40:39;9.50;99.90
24436;DHT22;12616;52.470;13.436;2022-12-29T15:43:24;9.40;99.90
24436;DHT22;12616;52.470;13.436;2022-12-29T15:45:55;9.40;99.90
24436;DHT22;12616;52.470;13.436;2022-12-29T15:48:24;9.30;99.90
24436;DHT22;12616;52.470;13.436;2022-12-29T15:50:53;9.30;99.90
24436;DHT22;12616;52.470;13.436;2022-12-29T15:53:22;9.20;99.90
24436;DHT22;12616;52.470;13.436;2022-12-29T15:55:55;9.20;99.90
24436;DHT22;12616;52.470;13.436;2022-12-29T15:58:25;9.30;99.90
24436;DHT22;12616;52.470;13.436;2022-12-29T16:00:54;9.20;99.90
24436;DHT22;12616;52.470;13.436;2022-12-29T16:03:23;9.20;99.90
24436;DHT22;12616;52.470;13.436;2022-12-29T16:05:54;9.20;99.90
24436;DHT22;12616;52.470;13.436;2022-12-29T16:08:27;9.20;99.90
24436;DHT22;12616;52.470;13.436;2022-12-29T16:10:55;9.20;99.90